Time;durP1;ratioP1;P1;durP2;ratioP2;P2;SDS_P1;SDS_P2;PMS_P1;PMS_P2;Temp;Humidity;BMP_temperature;BMP_pressure;BME280_temperature;BME280_humidity;BME280_pressure;Samples;Min_cycle;Max_cycle;Signal;HPM_P1;HPM_P2
2020/12/18 05:47:09;;;;;;;1999.90;999.90;;;0.80;99.90;;;;;;5116518;27;20576;-50
2020/12/18 05:49:37;;;;;;;1999.90;999.90;;;0.70;99.90;;;;;;5126767;28;20528;-51
2020/12/18 05:52:17;;;;;;;1999.90;999.90;;;0.70;99.90;;;;;;5091667;28;20450;-49
2020/12/18 05:54:43;;;;;;;1999.90;999.90;;;0.70;99.90;;;;;;5094384;28;20429;-49
2020/12/18 05:57:14;;;;;;;1999.90;999.90;;;0.80;99.90;;;;;;5106304;28;20415;-51
2020/12/18 05:59:47;;;;;;;1999.90;999.90;;;0.90;99.90;;;;;;5089315;28;20451;-50
2020/12/18 06:02:15;;;;;;;1999.90;999.90;;;1.00;99.90;;;;;;5090263;28;20602;-50
2020/12/18 06:04:41;;;;;;;1999.90;999.90;;;1.10;99.90;;;;;;5091792;28;20435;-50
2020/12/18 06:07:07;;;;;;;1999.90;999.90;;;1.10;99.90;;;;;;5106166;28;20447;-49
2020/12/18 06:09:36;;;;;;;1999.90;999.90;;;1.30;99.90;;;;;;5108926;28;20455;-49
2020/12/18 06:12:14;;;;;;;1999.90;999.90;;;1.40;99.90;;;;;;5093513;28;20464;-49
2020/12/18 06:14:41;;;;;;;1999.90;999.90;;;1.50;99.90;;;;;;5089002;28;20428;-50
2020/12/18 06:17:09;;;;;;;1999.90;999.90;;;1.60;99.90;;;;;;5092893;28;20424;-50
2020/12/18 06:19:41;;;;;;;1999.90;999.90;;;1.70;99.90;;;;;;5108970;28;20418;-49
2020/12/18 06:22:11;;;;;;;1999.90;999.90;;;1.80;99.90;;;;;;5094539;28;20465;-50
2020/12/18 06:24:43;;;;;;;1999.90;999.90;;;1.80;99.90;;;;;;5100520;28;20433;-50
2020/12/18 06:27:12;;;;;;;1999.90;999.90;;;1.90;99.90;;;;;;5117036;28;20445;-51
2020/12/18 06:29:38;;;;;;;1999.90;999.90;;;1.90;99.90;;;;;;5109068;28;20517;-49
2020/12/18 06:32:22;;;;;;;1999.90;999.90;;;2.00;99.90;;;;;;5107600;28;20432;-49
2020/12/18 06:34:48;;;;;;;1999.90;999.90;;;2.00;99.90;;;;;;5105779;28;20410;-50
2020/12/18 06:37:31;;;;;;;1999.90;999.90;;;2.10;99.90;;;;;;5098119;28;20430;-50
2020/12/18 06:39:58;;;;;;;1999.90;999.90;;;2.10;99.90;;;;;;5100170;28;20215;-50
2020/12/18 06:42:25;;;;;;;1999.90;999.90;;;2.20;99.90;;;;;;5098162;28;20465;-51
2020/12/18 06:44:58;;;;;;;1999.90;999.90;;;2.10;99.90;;;;;;5094913;28;20447;-50
2020/12/18 06:47:24;;;;;;;1999.90;999.90;;;2.10;99.90;;;;;;5108792;28;20874;-50
2020/12/18 06:49:57;;;;;;;1999.90;999.90;;;2.10;99.90;;;;;;5101959;28;20544;-51
2020/12/18 06:52:53;;;;;;;1999.90;999.90;;;2.20;99.90;;;;;;5093415;28;20187;-50
2020/12/18 06:55:24;;;;;;;1999.90;999.90;;;2.20;99.90;;;;;;5093994;28;20437;-50
2020/12/18 06:58:05;;;;;;;1999.90;999.90;;;2.20;99.90;;;;;;5078110;28;20412;-51
2020/12/18 07:00:33;;;;;;;1999.90;999.90;;;2.30;99.90;;;;;;5073437;28;20854;-50
2020/12/18 07:02:59;;;;;;;1999.90;999.90;;;2.30;99.90;;;;;;5074791;28;20811;-51
2020/12/18 07:05:36;;;;;;;1999.90;999.90;;;2.30;99.90;;;;;;5087464;28;20476;-49
2020/12/18 07:08:07;;;;;;;1999.90;999.90;;;2.30;99.90;;;;;;5056709;28;20422;-50
2020/12/18 07:10:47;;;;;;;1999.90;999.90;;;2.30;99.90;;;;;;5075719;28;20435;-50
2020/12/18 07:13:20;;;;;;;1999.90;999.90;;;2.30;99.90;;;;;;5074441;28;20451;-50
2020/12/18 07:15:49;;;;;;;1999.90;999.90;;;2.20;99.90;;;;;;5075640;28;20476;-50
2020/12/18 07:18:33;;;;;;;1999.90;999.90;;;2.20;99.90;;;;;;5059220;28;20524;-51
2020/12/18 07:21:07;;;;;;;1999.90;999.90;;;2.20;99.90;;;;;;5081378;28;20795;-53
2020/12/18 07:23:35;;;;;;;1999.90;999.90;;;2.20;99.90;;;;;;5082543;28;20434;-50
2020/12/18 07:26:03;;;;;;;1999.90;999.90;;;2.30;99.90;;;;;;5102042;28;20563;-51
2020/12/18 07:28:29;;;;;;;1999.90;999.90;;;2.30;99.90;;;;;;5112066;28;20965;-51
2020/12/18 07:30:57;;;;;;;1999.90;999.90;;;2.20;99.90;;;;;;5114680;28;20911;-50
2020/12/18 07:33:24;;;;;;;1999.90;999.90;;;2.20;99.90;;;;;;5115101;28;20841;-51
2020/12/18 07:35:55;;;;;;;1999.90;999.90;;;2.20;99.90;;;;;;5114890;28;20416;-51
2020/12/18 07:38:28;;;;;;;1999.90;999.90;;;2.10;99.90;;;;;;5088807;28;20854;-51
2020/12/18 07:40:57;;;;;;;1999.90;999.90;;;2.10;99.90;;;;;;5093821;28;20428;-51
2020/12/18 07:43:26;;;;;;;1999.90;999.90;;;2.00;99.90;;;;;;5082358;28;20440;-50
2020/12/18 07:45:55;;;;;;;1999.90;999.90;;;2.20;99.90;;;;;;5089707;28;20468;-51
2020/12/18 07:48:25;;;;;;;1999.90;999.90;;;2.20;99.90;;;;;;5094442;28;20422;-51
2020/12/18 07:51:10;;;;;;;1999.90;999.90;;;2.20;99.90;;;;;;5093891;28;20494;-50
2020/12/18 07:53:42;;;;;;;1999.90;999.90;;;2.30;99.90;;;;;;5094606;28;20420;-51
2020/12/18 07:56:09;;;;;;;1999.90;999.90;;;2.30;99.90;;;;;;5094479;28;20509;-50
2020/12/18 07:58:57;;;;;;;1999.90;999.90;;;2.40;99.90;;;;;;5091863;28;20446;-51
2020/12/18 08:01:25;;;;;;;1999.90;999.90;;;2.40;99.90;;;;;;5092110;28;20418;-51
2020/12/18 08:04:04;;;;;;;1999.90;999.90;;;2.50;99.90;;;;;;5085772;28;20501;-51
2020/12/18 08:06:34;;;;;;;1999.90;999.90;;;2.50;99.90;;;;;;5093084;28;20457;-51
2020/12/18 08:09:08;;;;;;;1999.90;999.90;;;2.60;99.90;;;;;;5081201;28;20965;-51
2020/12/18 08:11:45;;;;;;;1999.90;999.90;;;2.60;99.90;;;;;;5094233;28;20484;-50
2020/12/18 08:14:12;;;;;;;1999.90;999.90;;;2.60;99.90;;;;;;5080337;28;20775;-50
2020/12/18 15:16:49;;;;;;;1999.90;999.90;;;2.70;99.90;;;;;;5101869;27;20563;-50
2020/12/18 15:19:15;;;;;;;1999.90;999.90;;;2.70;99.90;;;;;;5096662;28;20455;-49
2020/12/18 15:21:41;;;;;;;1999.90;999.90;;;2.70;99.90;;;;;;5105994;28;20260;-50
2020/12/18 15:24:07;;;;;;;1999.90;999.90;;;2.70;99.90;;;;;;5105437;28;20651;-50
2020/12/18 15:26:32;;;;;;;1999.90;999.90;;;2.80;99.90;;;;;;5105609;28;20195;-49
2020/12/18 15:28:58;;;;;;;1999.90;999.90;;;2.80;99.90;;;;;;5094027;28;20454;-49
2020/12/18 15:31:24;;;;;;;1999.90;999.90;;;2.90;99.90;;;;;;5104272;28;20240;-50
2020/12/18 15:33:49;;;;;;;1999.90;999.90;;;2.90;99.90;;;;;;5101635;28;20191;-50
2020/12/18 15:36:19;;;;;;;1999.90;999.90;;;2.90;99.90;;;;;;5105007;28;20204;-49
2020/12/18 15:38:49;;;;;;;1999.90;999.90;;;2.90;99.90;;;;;;5102207;28;20245;-50
2020/12/18 15:41:15;;;;;;;1999.90;999.90;;;2.90;99.90;;;;;;5102002;28;20453;-48
2020/12/18 15:43:42;;;;;;;1999.90;999.90;;;3.00;99.90;;;;;;5101342;28;20437;-49
2020/12/18 15:46:10;;;;;;;1999.90;999.90;;;3.00;99.90;;;;;;5098064;28;20483;-49
2020/12/18 15:48:37;;;;;;;1999.90;999.90;;;3.00;99.90;;;;;;5101809;28;20440;-49
2020/12/18 15:51:02;;;;;;;1999.90;999.90;;;3.10;99.90;;;;;;5094960;28;20433;-50
2020/12/18 15:53:28;;;;;;;1999.90;999.90;;;3.10;99.90;;;;;;5085695;28;20414;-50
2020/12/18 15:55:54;;;;;;;1999.90;999.90;;;3.10;99.90;;;;;;5087513;28;20228;-49
2020/12/18 15:58:20;;;;;;;1999.90;999.90;;;3.10;99.90;;;;;;5105335;28;20831;-50
2020/12/18 16:00:46;;;;;;;1999.90;999.90;;;3.10;99.90;;;;;;5105332;28;20474;-50
2020/12/18 16:03:12;;;;;;;1999.90;999.90;;;3.10;99.90;;;;;;5104919;28;20179;-49
2020/12/18 16:05:37;;;;;;;1999.90;999.90;;;3.20;99.90;;;;;;5103338;28;20433;-50
2020/12/18 16:08:03;;;;;;;1999.90;999.90;;;3.20;99.90;;;;;;5100199;28;20668;-49
2020/12/18 16:10:31;;;;;;;1999.90;999.90;;;3.20;99.90;;;;;;5103142;28;20628;-49
2020/12/18 16:12:57;;;;;;;1999.90;999.90;;;3.20;99.90;;;;;;5110489;28;20447;-51
2020/12/18 16:15:22;;;;;;;1999.90;999.90;;;3.20;99.90;;;;;;5097264;28;20469;-49
2020/12/18 16:17:48;;;;;;;1999.90;999.90;;;3.20;99.90;;;;;;5104130;28;20278;-48
2020/12/18 16:20:14;;;;;;;1999.90;999.90;;;3.30;99.90;;;;;;5094205;28;20595;-48
2020/12/18 16:22:39;;;;;;;1999.90;999.90;;;3.30;99.90;;;;;;5092497;28;20191;-50
2020/12/18 16:25:05;;;;;;;1999.90;999.90;;;3.30;99.90;;;;;;5100007;28;20188;-50
2020/12/18 16:27:37;;;;;;;1999.90;999.90;;;3.30;99.90;;;;;;5094086;28;20956;-48
2020/12/18 16:30:07;;;;;;;1999.90;999.90;;;3.30;99.90;;;;;;5082891;28;20219;-48
2020/12/18 16:32:39;;;;;;;1999.90;999.90;;;3.30;99.90;;;;;;5086285;28;20427;-49
2020/12/18 16:35:06;;;;;;;1999.90;999.90;;;3.30;99.90;;;;;;5086881;28;20465;-49
2020/12/18 16:37:33;;;;;;;1999.90;999.90;;;3.40;99.90;;;;;;5083277;28;20454;-50
2020/12/18 16:39:59;;;;;;;1999.90;999.90;;;3.40;99.90;;;;;;5088878;28;21039;-49
2020/12/18 16:42:25;;;;;;;1999.90;999.90;;;3.30;99.90;;;;;;5089912;28;20410;-49
2020/12/18 16:44:50;;;;;;;1999.90;999.90;;;3.40;99.90;;;;;;5087851;28;20295;-50
2020/12/18 16:47:17;;;;;;;1999.90;999.90;;;3.40;99.90;;;;;;5091525;28;20419;-51
2020/12/18 16:49:43;;;;;;;1999.90;999.90;;;3.50;99.90;;;;;;5087416;28;20771;-51
2020/12/18 16:52:09;;;;;;;1999.90;999.90;;;3.50;99.90;;;;;;5090332;28;20457;-51
2020/12/18 16:54:35;;;;;;;1999.90;999.90;;;3.50;99.90;;;;;;5093294;28;20948;-49
2020/12/18 16:57:05;;;;;;;1999.90;999.90;;;3.50;99.90;;;;;;5099654;28;20426;-50
2020/12/18 16:59:34;;;;;;;1999.90;999.90;;;3.50;99.90;;;;;;5089544;28;20452;-51
2020/12/18 17:02:02;;;;;;;1999.90;999.90;;;3.40;99.90;;;;;;5088616;28;20430;-51
2020/12/18 17:04:28;;;;;;;1999.90;999.90;;;3.40;99.90;;;;;;5100130;28;20472;-51
2020/12/18 17:06:54;;;;;;;1999.90;999.90;;;3.50;99.90;;;;;;5095919;28;20419;-52
2020/12/18 17:09:20;;;;;;;1999.90;999.90;;;3.50;99.90;;;;;;5096185;28;20213;-52
2020/12/18 17:11:46;;;;;;;1999.90;999.90;;;3.50;99.90;;;;;;5093868;28;20510;-51
2020/12/18 17:14:12;;;;;;;1999.90;999.90;;;3.50;99.90;;;;;;5093889;28;20186;-52
2020/12/18 17:16:38;;;;;;;1999.90;999.90;;;3.50;99.90;;;;;;5091270;28;20469;-51
2020/12/18 17:19:04;;;;;;;1999.90;999.90;;;3.50;99.90;;;;;;5093540;28;20207;-52
2020/12/18 17:21:29;;;;;;;1999.90;999.90;;;3.50;99.90;;;;;;5090599;28;20427;-52
2020/12/18 17:23:55;;;;;;;1999.90;999.90;;;3.50;99.90;;;;;;5093962;28;20600;-52
2020/12/18 17:26:28;;;;;;;1999.90;999.90;;;3.50;99.90;;;;;;5092802;28;20189;-52
2020/12/18 17:28:54;;;;;;;1999.90;999.90;;;3.50;99.90;;;;;;5090811;28;20540;-51
2020/12/18 17:31:20;;;;;;;1999.90;999.90;;;3.60;99.90;;;;;;5091447;28;20533;-50
2020/12/18 17:33:46;;;;;;;1999.90;999.90;;;3.60;99.90;;;;;;5074229;28;20525;-52
2020/12/18 17:36:12;;;;;;;1999.90;999.90;;;3.50;99.90;;;;;;5089344;28;20239;-49
2020/12/18 17:38:38;;;;;;;1999.90;999.90;;;3.50;99.90;;;;;;5081243;28;21048;-50
2020/12/18 17:41:04;;;;;;;1999.90;999.90;;;3.50;99.90;;;;;;5083125;28;20434;-50
2020/12/18 17:43:29;;;;;;;1999.90;999.90;;;3.50;99.90;;;;;;5092065;28;20652;-50
2020/12/18 17:45:55;;;;;;;1999.90;999.90;;;3.50;99.90;;;;;;5088358;28;20499;-50
2020/12/18 17:48:21;;;;;;;1999.90;999.90;;;3.60;99.90;;;;;;5094851;28;20605;-51
2020/12/18 17:50:47;;;;;;;1999.90;999.90;;;3.60;99.90;;;;;;5091072;28;20191;-52
2020/12/18 17:53:13;;;;;;;1999.90;999.90;;;3.50;99.90;;;;;;5095493;28;20649;-52
2020/12/18 17:55:39;;;;;;;1999.90;999.90;;;3.50;99.90;;;;;;5093038;28;20222;-52
2020/12/18 17:58:05;;;;;;;1999.90;999.90;;;3.50;99.90;;;;;;5093313;28;20977;-52
2020/12/18 18:00:31;;;;;;;1999.90;999.90;;;3.50;99.90;;;;;;5091878;28;20488;-52
2020/12/18 18:02:57;;;;;;;1999.90;999.90;;;3.60;99.90;;;;;;5092426;28;20671;-52
2020/12/18 18:05:22;;;;;;;1999.90;999.90;;;3.60;99.90;;;;;;5089352;28;20245;-52
2020/12/18 18:07:48;;;;;;;1999.90;999.90;;;3.60;99.90;;;;;;5093242;28;20215;-52
2020/12/18 18:10:14;;;;;;;1999.90;999.90;;;3.50;99.90;;;;;;5093248;28;20204;-52
2020/12/18 18:12:40;;;;;;;1999.90;999.90;;;3.60;99.90;;;;;;5091421;28;20189;-52
2020/12/18 18:15:06;;;;;;;1999.90;999.90;;;3.60;99.90;;;;;;5092973;28;20487;-52
2020/12/18 18:17:32;;;;;;;1999.90;999.90;;;3.60;99.90;;;;;;5092060;28;20179;-51
2020/12/18 18:19:58;;;;;;;1999.90;999.90;;;3.60;99.90;;;;;;5085831;28;20450;-51
2020/12/18 18:22:23;;;;;;;1999.90;999.90;;;3.60;99.90;;;;;;5087046;28;20471;-52
2020/12/18 18:24:49;;;;;;;1999.90;999.90;;;3.60;99.90;;;;;;5089437;28;20419;-51
2020/12/18 18:27:15;;;;;;;1999.90;999.90;;;3.60;99.90;;;;;;5086425;28;20206;-52
2020/12/18 18:29:41;;;;;;;1999.90;999.90;;;3.60;99.90;;;;;;5075575;28;20233;-51
2020/12/18 18:32:07;;;;;;;1999.90;999.90;;;3.60;99.90;;;;;;5090516;28;20534;-50
2020/12/18 18:34:33;;;;;;;1999.90;999.90;;;3.60;99.90;;;;;;5091657;28;20472;-50
2020/12/18 18:36:58;;;;;;;1999.90;999.90;;;3.50;99.90;;;;;;5092380;28;20972;-51
2020/12/18 18:39:24;;;;;;;1999.90;999.90;;;3.60;99.90;;;;;;5089970;28;20203;-51
2020/12/18 18:41:50;;;;;;;1999.90;999.90;;;3.70;99.90;;;;;;5091047;28;20183;-51
2020/12/18 18:44:16;;;;;;;1999.90;999.90;;;3.60;99.90;;;;;;5091123;28;20177;-51
2020/12/18 18:46:42;;;;;;;1999.90;999.90;;;3.70;99.90;;;;;;5090826;28;20184;-51
2020/12/18 18:49:08;;;;;;;1999.90;999.90;;;3.60;99.90;;;;;;5091709;28;20450;-51
2020/12/18 18:51:36;;;;;;;1999.90;999.90;;;3.60;99.90;;;;;;5091032;28;20190;-50
2020/12/18 18:54:05;;;;;;;1999.90;999.90;;;3.60;99.90;;;;;;5092693;28;20571;-51
2020/12/18 18:56:30;;;;;;;1999.90;999.90;;;3.60;99.90;;;;;;5090545;28;20473;-51
2020/12/18 18:58:56;;;;;;;1999.90;999.90;;;3.60;99.90;;;;;;5089638;28;20450;-51
2020/12/18 19:01:22;;;;;;;1999.90;999.90;;;3.60;99.90;;;;;;5084669;28;20190;-50
2020/12/18 19:03:47;;;;;;;1999.90;999.90;;;3.60;99.90;;;;;;5089100;28;20260;-51
2020/12/18 19:06:16;;;;;;;1999.90;999.90;;;3.70;99.90;;;;;;5085237;28;20204;-51
2020/12/18 19:08:42;;;;;;;1999.90;999.90;;;3.70;99.90;;;;;;5084902;28;20200;-51
2020/12/18 19:11:07;;;;;;;1999.90;999.90;;;3.70;99.90;;;;;;5088107;28;20963;-51
2020/12/18 19:13:33;;;;;;;1999.90;999.90;;;3.70;99.90;;;;;;5088085;28;20676;-51
2020/12/18 19:15:59;;;;;;;1999.90;999.90;;;3.70;99.90;;;;;;5088689;28;20211;-49
2020/12/18 19:18:25;;;;;;;1999.90;999.90;;;3.70;99.90;;;;;;5080454;28;20241;-50
2020/12/18 19:20:50;;;;;;;1999.90;999.90;;;3.70;99.90;;;;;;5084723;28;20242;-50
2020/12/18 19:23:16;;;;;;;1999.90;999.90;;;3.70;99.90;;;;;;5081976;28;20461;-51
2020/12/18 19:25:42;;;;;;;1999.90;999.90;;;3.70;99.90;;;;;;5085315;28;20191;-49
2020/12/18 19:28:07;;;;;;;1999.90;999.90;;;3.70;99.90;;;;;;5082835;28;20181;-50
2020/12/18 19:30:34;;;;;;;1999.90;999.90;;;3.70;99.90;;;;;;5083364;28;20247;-50
2020/12/18 19:33:00;;;;;;;1999.90;999.90;;;3.70;99.90;;;;;;5080960;28;20184;-50
2020/12/18 19:35:26;;;;;;;1999.90;999.90;;;3.70;99.90;;;;;;5085251;28;21154;-50
2020/12/18 19:37:52;;;;;;;1999.90;999.90;;;3.70;99.90;;;;;;5084362;28;20419;-50
2020/12/18 19:40:17;;;;;;;1999.90;999.90;;;3.70;99.90;;;;;;5084998;28;20287;-50
2020/12/18 19:42:43;;;;;;;1999.90;999.90;;;3.70;99.90;;;;;;5084982;28;20267;-50
2020/12/18 19:45:11;;;;;;;1999.90;999.90;;;3.70;99.90;;;;;;5087500;28;20286;-50
2020/12/18 19:47:39;;;;;;;1999.90;999.90;;;3.70;99.90;;;;;;5086624;28;20176;-48
2020/12/18 19:50:07;;;;;;;1999.90;999.90;;;3.60;99.90;;;;;;5085294;28;20943;-50
2020/12/18 19:52:34;;;;;;;1999.90;999.90;;;3.70;99.90;;;;;;5084831;28;20476;-50
2020/12/18 19:55:01;;;;;;;1999.90;999.90;;;3.60;99.90;;;;;;5094922;28;20486;-50
2020/12/18 19:57:27;;;;;;;1999.90;999.90;;;3.60;99.90;;;;;;5090613;28;20433;-49
2020/12/18 19:59:53;;;;;;;1999.90;999.90;;;3.60;99.90;;;;;;5085691;28;21383;-49
2020/12/18 20:02:18;;;;;;;1999.90;999.90;;;3.70;99.90;;;;;;5087426;28;20399;-51
2020/12/18 20:04:44;;;;;;;1999.90;999.90;;;3.70;99.90;;;;;;5090207;28;20184;-48
2020/12/18 20:07:10;;;;;;;1999.90;999.90;;;3.60;99.90;;;;;;5086313;28;20843;-48
2020/12/18 20:09:37;;;;;;;1999.90;999.90;;;3.50;99.90;;;;;;5090816;28;20293;-49
2020/12/18 20:12:05;;;;;;;1999.90;999.90;;;3.60;99.90;;;;;;5090891;28;20233;-50
2020/12/18 20:14:31;;;;;;;1999.90;999.90;;;3.60;99.90;;;;;;5090119;28;20502;-50
2020/12/18 20:16:56;;;;;;;1999.90;999.90;;;3.60;99.90;;;;;;5088016;28;20877;-49
2020/12/18 20:19:22;;;;;;;1999.90;999.90;;;3.60;99.90;;;;;;5087388;28;20256;-50
2020/12/18 20:21:48;;;;;;;1999.90;999.90;;;3.60;99.90;;;;;;5086173;28;20184;-49
2020/12/18 20:24:13;;;;;;;1999.90;999.90;;;3.50;99.90;;;;;;5087468;28;20188;-49
2020/12/18 20:26:39;;;;;;;1999.90;999.90;;;3.50;99.90;;;;;;5083523;28;20192;-51
2020/12/18 20:29:05;;;;;;;1999.90;999.90;;;3.50;99.90;;;;;;5084737;28;20219;-49
2020/12/18 20:31:31;;;;;;;1999.90;999.90;;;3.40;99.90;;;;;;5089129;28;20706;-50
2020/12/18 20:33:56;;;;;;;1999.90;999.90;;;3.40;99.90;;;;;;5084818;28;20445;-50
2020/12/18 20:36:23;;;;;;;1999.90;999.90;;;3.40;99.90;;;;;;5087915;28;20214;-49
2020/12/18 20:38:52;;;;;;;1999.90;999.90;;;3.40;99.90;;;;;;5085933;28;21010;-50
2020/12/18 20:41:19;;;;;;;1999.90;999.90;;;3.30;99.90;;;;;;5087124;28;20430;-50
2020/12/18 20:43:44;;;;;;;1999.90;999.90;;;3.30;99.90;;;;;;5089344;28;20470;-49
2020/12/18 20:46:12;;;;;;;1999.90;999.90;;;3.40;99.90;;;;;;5083739;28;20481;-49
2020/12/18 20:48:41;;;;;;;1999.90;999.90;;;3.30;99.90;;;;;;5084475;28;20473;-49
2020/12/18 20:51:07;;;;;;;1999.90;999.90;;;3.30;99.90;;;;;;5086860;28;20449;-50
2020/12/18 20:53:33;;;;;;;1999.90;999.90;;;3.30;99.90;;;;;;5087255;28;20442;-49
2020/12/18 20:55:58;;;;;;;1999.90;999.90;;;3.20;99.90;;;;;;5086347;28;20214;-51
2020/12/18 20:58:24;;;;;;;1999.90;999.90;;;3.20;99.90;;;;;;5083816;28;20185;-49
2020/12/18 21:00:52;;;;;;;1999.90;999.90;;;3.20;99.90;;;;;;5082426;28;20689;-49
2020/12/18 21:03:18;;;;;;;1999.90;999.90;;;3.10;99.90;;;;;;5086599;28;20433;-50
2020/12/18 21:05:44;;;;;;;1999.90;999.90;;;3.10;99.90;;;;;;5086289;28;20438;-49
2020/12/18 21:08:10;;;;;;;1999.90;999.90;;;3.10;99.90;;;;;;5084818;28;21042;-50
2020/12/18 21:10:36;;;;;;;1999.90;999.90;;;3.10;99.90;;;;;;5086437;28;20212;-50
2020/12/18 21:13:02;;;;;;;1999.90;999.90;;;3.10;99.90;;;;;;5086774;28;20208;-49
2020/12/18 21:15:28;;;;;;;1999.90;999.90;;;3.00;99.90;;;;;;5086034;28;20504;-49
2020/12/18 21:17:54;;;;;;;1999.90;999.90;;;3.00;99.90;;;;;;5086700;28;20430;-51
2020/12/18 21:20:21;;;;;;;1999.90;999.90;;;3.00;99.90;;;;;;5088084;28;20458;-49
2020/12/18 21:22:48;;;;;;;1999.90;999.90;;;3.00;99.90;;;;;;5088143;28;20477;-50
2020/12/18 21:25:14;;;;;;;1999.90;999.90;;;3.00;99.90;;;;;;5089015;28;20438;-50
2020/12/18 21:27:40;;;;;;;1999.90;999.90;;;3.00;99.90;;;;;;5085922;28;20439;-51
2020/12/18 21:30:06;;;;;;;1999.90;999.90;;;3.00;99.90;;;;;;5082292;28;20210;-49
2020/12/18 21:32:32;;;;;;;1999.90;999.90;;;3.00;99.90;;;;;;5084427;28;20196;-49
2020/12/18 21:34:57;;;;;;;1999.90;999.90;;;3.00;99.90;;;;;;5086549;28;20466;-49
2020/12/18 21:37:24;;;;;;;1999.90;999.90;;;3.00;99.90;;;;;;5085899;28;20442;-50
2020/12/18 21:39:52;;;;;;;1999.90;999.90;;;3.00;99.90;;;;;;5088146;28;20644;-49
2020/12/18 21:42:18;;;;;;;1999.90;999.90;;;3.00;99.90;;;;;;5085771;28;21203;-50
2020/12/18 21:44:44;;;;;;;1999.90;999.90;;;2.90;99.90;;;;;;5087234;28;20508;-49
2020/12/18 21:47:10;;;;;;;1999.90;999.90;;;3.00;99.90;;;;;;5086441;28;20436;-50
2020/12/18 21:49:35;;;;;;;1999.90;999.90;;;3.00;99.90;;;;;;5088144;28;20200;-49
2020/12/18 21:52:01;;;;;;;1999.90;999.90;;;3.00;99.90;;;;;;5087635;28;20201;-50
2020/12/18 21:54:27;;;;;;;1999.90;999.90;;;2.90;99.90;;;;;;5087821;28;20186;-50
2020/12/18 21:56:52;;;;;;;1999.90;999.90;;;3.00;99.90;;;;;;5087078;28;20816;-49
2020/12/18 21:59:18;;;;;;;1999.90;999.90;;;2.90;99.90;;;;;;5087226;28;20200;-50
2020/12/18 22:01:44;;;;;;;1999.90;999.90;;;3.00;99.90;;;;;;5087682;28;20418;-49
2020/12/18 22:04:10;;;;;;;1999.90;999.90;;;3.00;99.90;;;;;;5087884;28;20469;-52
2020/12/18 22:06:35;;;;;;;1999.90;999.90;;;3.00;99.90;;;;;;5085192;28;20180;-49
2020/12/18 22:09:04;;;;;;;1999.90;999.90;;;3.00;99.90;;;;;;5081939;28;20251;-50
2020/12/18 22:11:33;;;;;;;1999.90;999.90;;;3.00;99.90;;;;;;5085390;28;20198;-50
2020/12/18 22:13:58;;;;;;;1999.90;999.90;;;2.90;99.90;;;;;;5085980;28;20960;-50
2020/12/18 22:16:24;;;;;;;1999.90;999.90;;;2.90;99.90;;;;;;5086285;28;20516;-50
2020/12/18 22:18:49;;;;;;;1999.90;999.90;;;2.90;99.90;;;;;;5085081;28;20286;-50
2020/12/18 22:21:15;;;;;;;1999.90;999.90;;;2.90;99.90;;;;;;5082400;28;20943;-50
2020/12/18 22:23:42;;;;;;;1999.90;999.90;;;2.90;99.90;;;;;;5087051;28;20339;-49
2020/12/18 22:26:08;;;;;;;1999.90;999.90;;;2.90;99.90;;;;;;5083382;28;20594;-51
2020/12/18 22:28:34;;;;;;;1999.90;999.90;;;3.00;99.90;;;;;;5084983;28;20462;-49
2020/12/18 22:31:01;;;;;;;1999.90;999.90;;;3.00;99.90;;;;;;5084634;28;20187;-50
2020/12/18 22:33:27;;;;;;;1999.90;999.90;;;3.00;99.90;;;;;;5084732;28;20477;-49
2020/12/18 22:35:52;;;;;;;1999.90;999.90;;;3.10;99.90;;;;;;5086670;28;20465;-50
2020/12/18 22:38:18;;;;;;;1999.90;999.90;;;3.10;99.90;;;;;;5087427;28;20289;-50
2020/12/18 22:40:44;;;;;;;1999.90;999.90;;;3.10;99.90;;;;;;5086669;28;20230;-49
2020/12/18 22:43:09;;;;;;;1999.90;999.90;;;3.10;99.90;;;;;;5088160;28;20191;-49
2020/12/18 22:45:35;;;;;;;1999.90;999.90;;;3.10;99.90;;;;;;5088375;28;20199;-50
2020/12/18 22:48:03;;;;;;;1999.90;999.90;;;3.10;99.90;;;;;;5084713;28;20191;-49
2020/12/18 22:50:29;;;;;;;1999.90;999.90;;;3.10;99.90;;;;;;5076728;28;20280;-50
2020/12/18 22:52:54;;;;;;;1999.90;999.90;;;3.10;99.90;;;;;;5086951;28;20422;-49
2020/12/18 22:55:20;;;;;;;1999.90;999.90;;;3.10;99.90;;;;;;5081124;28;20569;-49
2020/12/18 22:57:46;;;;;;;1999.90;999.90;;;3.10;99.90;;;;;;5086091;28;20188;-50
2020/12/18 23:00:15;;;;;;;1999.90;999.90;;;3.10;99.90;;;;;;5087190;28;20483;-50
2020/12/18 23:02:41;;;;;;;1999.90;999.90;;;3.00;99.90;;;;;;5082650;28;20456;-49
2020/12/18 23:05:07;;;;;;;1999.90;999.90;;;3.10;99.90;;;;;;5086701;28;20454;-49
2020/12/18 23:07:34;;;;;;;1999.90;999.90;;;3.10;99.90;;;;;;5074967;28;20795;-49
2020/12/18 23:10:00;;;;;;;1999.90;999.90;;;3.00;99.90;;;;;;5086990;28;21173;-49
2020/12/18 23:12:26;;;;;;;1999.90;999.90;;;3.00;99.90;;;;;;5086731;28;20531;-50
2020/12/18 23:14:51;;;;;;;1999.90;999.90;;;3.00;99.90;;;;;;5086777;28;20656;-49
2020/12/18 23:17:17;;;;;;;1999.90;999.90;;;2.90;99.90;;;;;;5086250;28;20442;-50
2020/12/18 23:19:43;;;;;;;1999.90;999.90;;;2.90;99.90;;;;;;5086688;28;20294;-50
2020/12/18 23:22:10;;;;;;;1999.90;999.90;;;2.90;99.90;;;;;;5086764;28;20414;-50
2020/12/18 23:24:35;;;;;;;1999.90;999.90;;;2.90;99.90;;;;;;5087052;28;20425;-49
2020/12/18 23:27:03;;;;;;;1999.90;999.90;;;2.90;99.90;;;;;;5086886;28;20447;-50
2020/12/18 23:29:29;;;;;;;1999.90;999.90;;;2.80;99.90;;;;;;5086654;28;20211;-50
2020/12/18 23:31:55;;;;;;;1999.90;999.90;;;2.80;99.90;;;;;;5086812;28;20606;-50
2020/12/18 23:34:20;;;;;;;1999.90;999.90;;;2.80;99.90;;;;;;5087037;28;20415;-50
2020/12/18 23:36:52;;;;;;;1999.90;999.90;;;2.80;99.90;;;;;;5087148;28;20219;-49
2020/12/18 23:39:18;;;;;;;1999.90;999.90;;;2.80;99.90;;;;;;5090665;28;20204;-50
2020/12/18 23:41:43;;;;;;;1999.90;999.90;;;2.80;99.90;;;;;;5090843;28;20937;-50
2020/12/18 23:44:09;;;;;;;1999.90;999.90;;;2.80;99.90;;;;;;5090992;28;20262;-49
2020/12/18 23:46:35;;;;;;;1999.90;999.90;;;2.70;99.90;;;;;;5087942;28;20215;-50
2020/12/18 23:49:01;;;;;;;1999.90;999.90;;;2.70;99.90;;;;;;5090668;28;20452;-49
2020/12/18 23:51:26;;;;;;;1999.90;999.90;;;2.70;99.90;;;;;;5090472;28;20185;-50
2020/12/18 23:53:52;;;;;;;1999.90;999.90;;;2.70;99.90;;;;;;5090561;28;21362;-49
2020/12/18 23:56:18;;;;;;;1999.90;999.90;;;2.70;99.90;;;;;;5087888;28;20235;-50
2020/12/18 23:58:43;;;;;;;1999.90;999.90;;;2.60;99.90;;;;;;5083220;28;20744;-50
